Time;durP1;ratioP1;P1;durP2;ratioP2;P2;SDS_P1;SDS_P2;PMS_P1;PMS_P2;Temp;Humidity;BMP_temperature;BMP_pressure;BME280_temperature;BME280_humidity;BME280_pressure;Samples;Min_cycle;Max_cycle;Signal;HPM_P1;HPM_P2
2022/07/20 00:02:21;;;;;;;8.93;3.85;;;;;;;28.27;25.53;99250.50;5024879;28;20049;-64
2022/07/20 00:04:49;;;;;;;6.88;3.70;;;;;;;28.41;26.11;99252.22;5026432;28;20582;-65
2022/07/20 00:07:16;;;;;;;11.00;4.65;;;;;;;28.50;25.28;99252.06;5027575;28;20061;-65
2022/07/20 00:12:27;;;;;;;8.20;3.30;;;;;;;28.68;25.00;99247.72;5027618;28;20055;-65
2022/07/20 00:14:54;;;;;;;8.27;3.63;;;;;;;28.77;25.12;99244.78;5026945;28;20378;-63
2022/07/20 00:17:20;;;;;;;9.48;3.25;;;;;;;28.83;24.60;99242.09;5026633;28;20053;-63
2022/07/20 00:19:48;;;;;;;7.43;3.60;;;;;;;28.92;24.69;99244.59;5027048;28;20587;-64
2022/07/20 00:22:15;;;;;;;4.43;3.53;;;;;;;28.99;24.81;99242.72;5027876;28;20524;-63
2022/07/20 00:24:42;;;;;;;8.30;3.15;;;;;;;29.07;24.30;99237.16;5021799;28;20625;-64
2022/07/20 00:27:08;;;;;;;8.32;3.85;;;;;;;29.20;24.23;99229.00;5027503;28;20072;-66
2022/07/20 00:29:35;;;;;;;6.68;3.58;;;;;;;29.30;24.04;99231.28;5026631;28;20560;-63
2022/07/20 00:32:02;;;;;;;7.78;3.53;;;;;;;29.33;23.81;99237.09;5027285;28;20509;-63
2022/07/20 00:34:28;;;;;;;6.75;4.10;;;;;;;29.35;24.46;99226.03;5027768;28;20055;-63
2022/07/20 00:36:56;;;;;;;7.53;3.30;;;;;;;29.38;24.24;99235.66;5029068;28;20141;-64
2022/07/20 00:39:23;;;;;;;5.05;3.67;;;;;;;29.42;23.84;99236.91;5028006;28;20547;-64
2022/07/20 00:41:49;;;;;;;5.25;2.60;;;;;;;29.46;23.87;99241.72;5029362;28;20080;-64
2022/07/20 00:44:16;;;;;;;5.93;3.97;;;;;;;29.49;24.21;99244.00;5029091;28;20069;-63
2022/07/20 00:46:46;;;;;;;5.80;3.13;;;;;;;29.53;24.23;99236.25;5028653;28;20049;-64
2022/07/20 00:49:14;;;;;;;5.57;2.78;;;;;;;29.52;23.91;99242.72;5029316;28;20103;-64
2022/07/20 00:51:42;;;;;;;4.68;2.88;;;;;;;29.58;23.91;99230.19;5027061;28;20049;-64
2022/07/20 00:54:10;;;;;;;6.90;2.92;;;;;;;29.61;24.07;99241.47;5026412;28;20053;-64
2022/07/20 00:56:38;;;;;;;4.95;3.05;;;;;;;29.60;23.78;99238.94;5027187;28;20677;-64
2022/07/20 00:59:06;;;;;;;5.57;3.70;;;;;;;29.61;23.60;99227.03;5027353;28;20056;-64
2022/07/20 01:01:33;;;;;;;7.30;3.78;;;;;;;29.63;23.81;99225.75;5005702;28;20053;-63
2022/07/20 01:04:00;;;;;;;9.43;3.67;;;;;;;29.63;23.84;99225.75;5026868;28;20059;-64
2022/07/20 01:06:27;;;;;;;8.95;3.50;;;;;;;29.64;23.99;99230.16;5026811;28;20053;-64
2022/07/20 01:08:54;;;;;;;9.20;3.53;;;;;;;29.62;23.87;99226.81;5026540;28;20741;-64
2022/07/20 01:11:22;;;;;;;9.00;3.35;;;;;;;29.61;24.07;99224.31;5026995;28;20067;-65
2022/07/20 01:13:48;;;;;;;5.75;3.22;;;;;;;29.56;23.81;99216.81;5025553;28;20807;-66
2022/07/20 01:16:15;;;;;;;6.03;3.47;;;;;;;29.54;23.70;99225.19;5025749;28;20057;-64
2022/07/20 01:18:42;;;;;;;3.75;3.00;;;;;;;29.53;23.76;99217.22;5027074;28;20041;-65
2022/07/20 01:21:10;;;;;;;5.50;3.00;;;;;;;29.52;24.01;99221.00;5026959;28;20052;-64
2022/07/20 01:23:37;;;;;;;4.90;2.92;;;;;;;29.50;23.99;99214.94;5019877;28;20510;-65
2022/07/20 01:26:04;;;;;;;7.05;3.35;;;;;;;29.50;24.08;99217.66;5006229;28;20418;-65
2022/07/20 01:28:31;;;;;;;4.00;2.65;;;;;;;29.50;24.04;99217.66;5006792;28;20571;-66
2022/07/20 01:30:58;;;;;;;4.47;2.97;;;;;;;29.47;24.17;99216.19;5006679;28;20061;-65
2022/07/20 01:33:25;;;;;;;10.90;3.83;;;;;;;29.46;24.13;99216.41;5006889;28;20132;-65
2022/07/20 01:35:52;;;;;;;4.20;3.38;;;;;;;29.46;24.04;99224.56;5005916;28;20065;-65
2022/07/20 01:38:20;;;;;;;6.65;2.55;;;;;;;29.42;24.27;99236.91;5006613;28;20063;-64
2022/07/20 01:40:47;;;;;;;9.32;3.22;;;;;;;29.35;24.25;99245.06;5006392;28;20076;-64
2022/07/20 01:43:13;;;;;;;5.78;4.00;;;;;;;29.28;24.26;99252.38;5006305;28;20505;-65
2022/07/20 01:45:40;;;;;;;6.15;3.65;;;;;;;29.21;24.75;99246.09;5005800;28;20053;-64
2022/07/20 01:48:07;;;;;;;9.25;4.25;;;;;;;29.16;24.78;99243.19;5026198;28;20056;-65
2022/07/20 01:50:34;;;;;;;9.13;3.50;;;;;;;29.13;24.35;99230.88;5026056;28;20073;-65
2022/07/20 01:53:00;;;;;;;5.38;3.15;;;;;;;29.16;24.33;99226.91;5025981;28;20049;-65
2022/07/20 01:55:28;;;;;;;9.90;3.40;;;;;;;29.16;24.30;99222.28;5025155;28;20588;-65
2022/07/20 01:57:55;;;;;;;5.60;3.53;;;;;;;29.15;24.60;99223.34;5017646;28;20684;-65
2022/07/20 02:00:22;;;;;;;10.80;3.45;;;;;;;29.15;24.52;99220.63;5006153;28;20053;-65
2022/07/20 02:02:49;;;;;;;4.57;3.15;;;;;;;29.15;24.34;99208.94;5006064;28;20053;-65
2022/07/20 02:05:17;;;;;;;9.98;3.22;;;;;;;29.16;24.33;99210.59;5019210;28;20049;-65
2022/07/20 02:07:44;;;;;;;6.28;3.70;;;;;;;29.15;24.34;99217.94;5022876;28;20041;-65
2022/07/20 02:10:12;;;;;;;4.63;3.20;;;;;;;29.14;24.66;99228.97;5025719;28;20053;-65
2022/07/20 02:12:41;;;;;;;12.15;3.50;;;;;;;29.12;24.41;99272.66;5025044;28;20053;-65
2022/07/20 02:15:10;;;;;;;7.18;3.55;;;;;;;29.02;24.89;99289.31;5018071;28;20841;-65
2022/07/20 02:17:38;;;;;;;8.00;3.95;;;;;;;28.92;25.21;99301.59;5025421;28;20045;-65
2022/07/20 02:20:05;;;;;;;7.65;3.20;;;;;;;28.85;25.24;99310.56;5025500;28;20060;-65
2022/07/20 02:22:32;;;;;;;7.55;4.07;;;;;;;28.77;25.46;99318.91;5025808;28;20041;-65
2022/07/20 02:24:58;;;;;;;11.23;3.70;;;;;;;28.69;25.54;99324.50;5005907;28;20053;-65
2022/07/20 02:27:25;;;;;;;10.95;3.38;;;;;;;28.63;26.03;99315.31;5005181;28;20049;-65
2022/07/20 02:29:53;;;;;;;6.35;3.40;;;;;;;28.57;26.19;99315.28;5005892;28;20049;-65
2022/07/20 02:32:19;;;;;;;8.50;3.40;;;;;;;28.45;26.06;99313.19;5005912;28;20069;-65
2022/07/20 02:34:46;;;;;;;5.88;3.47;;;;;;;28.40;25.98;99314.78;5005569;28;20694;-64
2022/07/20 02:37:12;;;;;;;5.35;2.80;;;;;;;28.37;26.35;99332.28;5006303;28;20057;-65
2022/07/20 02:39:39;;;;;;;6.43;3.70;;;;;;;28.37;26.23;99337.72;5026249;28;20045;-65
2022/07/20 02:42:06;;;;;;;5.75;2.95;;;;;;;28.32;26.07;99340.19;5025785;28;20064;-65
2022/07/20 02:44:32;;;;;;;5.75;3.03;;;;;;;28.26;26.49;99347.25;5024632;28;20505;-66
2022/07/20 02:47:00;;;;;;;6.22;3.70;;;;;;;28.22;26.38;99345.16;5025127;28;20057;-66
2022/07/20 02:49:27;;;;;;;4.25;3.30;;;;;;;28.19;26.39;99348.28;5025009;28;20049;-65
2022/07/20 02:51:53;;;;;;;7.00;3.75;;;;;;;28.05;26.94;99360.91;5025088;28;20050;-64
2022/07/20 02:54:20;;;;;;;9.32;3.70;;;;;;;27.90;27.28;99365.59;5024553;28;20058;-65
2022/07/20 02:56:46;;;;;;;5.00;2.90;;;;;;;27.80;27.35;99366.75;5025070;28;20048;-65
2022/07/20 02:59:13;;;;;;;5.88;3.80;;;;;;;27.76;27.27;99381.75;5006236;28;20065;-65
2022/07/20 03:01:39;;;;;;;9.85;5.40;;;;;;;27.68;28.77;99381.88;5005804;28;20060;-65
2022/07/20 03:04:07;;;;;;;11.85;5.78;;;;;;;27.53;29.57;99387.38;5004943;28;20050;-65
2022/07/20 03:06:34;;;;;;;11.95;6.43;;;;;;;27.36;31.03;99396.81;5005272;28;20052;-65
2022/07/20 03:09:00;;;;;;;11.93;6.68;;;;;;;27.16;31.45;99391.16;5005198;28;20057;-65
2022/07/20 03:11:27;;;;;;;12.77;7.90;;;;;;;27.01;32.35;99409.31;5005255;28;20062;-64
2022/07/20 03:13:54;;;;;;;17.23;8.65;;;;;;;26.76;33.64;99413.19;5019842;28;20049;-63
2022/07/20 03:16:20;;;;;;;14.95;8.80;;;;;;;26.62;34.14;99408.66;5024209;28;20052;-64
2022/07/20 03:18:47;;;;;;;14.90;10.07;;;;;;;26.42;35.57;99418.34;5024573;28;20240;-64
2022/07/20 03:21:15;;;;;;;21.42;11.73;;;;;;;26.25;36.45;99418.50;5024778;28;20151;-64
2022/07/20 03:23:41;;;;;;;21.17;11.65;;;;;;;26.15;37.32;99426.06;5016241;28;20056;-64
2022/07/20 03:26:08;;;;;;;20.02;10.23;;;;;;;26.02;37.79;99420.47;5004972;28;20050;-64
2022/07/20 03:28:34;;;;;;;16.83;11.65;;;;;;;25.91;38.43;99438.78;5004845;28;20050;-64
2022/07/20 03:31:01;;;;;;;16.33;12.10;;;;;;;25.84;38.58;99431.56;5004385;28;20050;-64
2022/07/20 03:33:28;;;;;;;24.35;12.38;;;;;;;25.80;39.49;99441.06;5004429;28;20135;-64
2022/07/20 03:35:54;;;;;;;19.63;14.40;;;;;;;25.72;39.89;99447.38;5003615;28;20052;-64
2022/07/20 03:38:22;;;;;;;25.60;12.48;;;;;;;25.61;40.20;99445.94;5016176;28;20053;-64
2022/07/20 03:40:48;;;;;;;23.08;13.80;;;;;;;25.52;40.82;99454.28;5024560;28;20049;-64
2022/07/20 03:43:15;;;;;;;25.38;14.65;;;;;;;25.42;41.30;99449.94;5024505;28;20076;-64
2022/07/20 03:45:42;;;;;;;18.02;14.07;;;;;;;25.37;41.84;99446.94;5023768;28;20072;-64
2022/07/20 03:48:08;;;;;;;23.50;13.75;;;;;;;25.34;42.17;99459.97;5024621;28;20636;-64
2022/07/20 03:50:35;;;;;;;21.70;14.68;;;;;;;25.30;42.51;99456.78;5024085;28;20452;-64
2022/07/20 03:53:01;;;;;;;24.58;15.00;;;;;;;25.31;42.33;99463.03;5024508;28;20434;-65
2022/07/20 03:55:29;;;;;;;27.73;15.25;;;;;;;25.30;42.97;99464.88;5023477;28;20145;-64
2022/07/20 03:57:56;;;;;;;21.73;14.63;;;;;;;25.27;42.63;99467.94;5015843;28;20049;-64
2022/07/20 04:00:22;;;;;;;18.63;12.82;;;;;;;25.24;42.73;99479.94;5004578;28;20065;-65
2022/07/20 04:02:49;;;;;;;22.08;15.45;;;;;;;25.19;43.15;99482.31;5004435;28;20042;-64
2022/07/20 04:05:15;;;;;;;20.20;14.40;;;;;;;25.12;43.52;99484.00;5005503;28;20061;-64
2022/07/20 04:07:42;;;;;;;26.50;15.55;;;;;;;25.05;44.17;99480.34;5023211;28;20054;-64
2022/07/20 04:10:09;;;;;;;23.00;15.73;;;;;;;24.96;44.88;99493.03;5023889;28;20077;-64
2022/07/20 04:12:37;;;;;;;21.10;15.13;;;;;;;24.90;45.37;99504.50;5024215;28;20045;-64
2022/07/20 04:15:04;;;;;;;24.00;16.25;;;;;;;24.87;45.05;99514.81;5022996;28;20045;-63
2022/07/20 04:17:31;;;;;;;21.67;14.40;;;;;;;24.83;45.41;99514.31;5023369;28;20061;-64
2022/07/20 04:19:57;;;;;;;34.78;16.30;;;;;;;24.82;45.79;99518.03;5024194;28;20484;-64
2022/07/20 04:22:25;;;;;;;26.15;16.90;;;;;;;24.78;46.67;99520.22;5023769;28;20051;-63
2022/07/20 04:24:52;;;;;;;19.92;15.20;;;;;;;24.78;46.83;99516.69;5005147;28;20078;-64
2022/07/20 04:27:19;;;;;;;24.50;15.88;;;;;;;24.77;46.88;99525.81;5004361;28;20070;-64
2022/07/20 04:29:46;;;;;;;22.60;17.50;;;;;;;24.76;47.80;99519.56;5004159;28;20053;-64
2022/07/20 04:32:13;;;;;;;26.48;17.23;;;;;;;24.72;47.95;99528.19;5004526;28;20052;-63
2022/07/20 04:34:40;;;;;;;28.20;18.27;;;;;;;24.71;48.32;99526.47;5004094;28;20058;-65
2022/07/20 04:37:07;;;;;;;26.08;17.85;;;;;;;24.70;48.17;99528.34;5004462;28;20068;-65
2022/07/20 04:39:33;;;;;;;30.67;18.08;;;;;;;24.70;48.84;99532.91;5004333;28;20054;-65
2022/07/20 04:42:00;;;;;;;23.08;17.85;;;;;;;24.67;48.89;99533.25;5004566;28;20054;-65
2022/07/20 04:44:26;;;;;;;30.05;17.45;;;;;;;24.64;49.33;99543.38;5007080;28;20045;-65
2022/07/20 04:46:54;;;;;;;28.17;18.08;;;;;;;24.62;49.22;99537.28;5003930;28;20085;-66
2022/07/20 04:49:21;;;;;;;29.17;20.13;;;;;;;24.62;49.51;99545.38;5004736;28;20054;-65
2022/07/20 04:51:48;;;;;;;27.40;17.38;;;;;;;24.65;49.51;99544.19;5007576;28;20053;-65
2022/07/20 04:54:14;;;;;;;27.73;18.17;;;;;;;24.69;49.67;99545.53;5006881;28;20050;-65
2022/07/20 04:56:41;;;;;;;29.65;20.02;;;;;;;24.64;50.30;99537.97;5007567;28;20049;-65
2022/07/20 04:59:07;;;;;;;30.13;19.73;;;;;;;24.66;50.30;99540.47;5026084;28;20056;-65
2022/07/20 05:01:34;;;;;;;27.15;18.88;;;;;;;24.69;49.97;99540.16;5027401;28;20076;-65
2022/07/20 05:04:02;;;;;;;26.40;20.05;;;;;;;24.73;50.32;99546.03;5026697;28;20645;-65
2022/07/20 05:06:28;;;;;;;31.05;20.75;;;;;;;24.74;50.36;99550.44;5026468;28;20104;-65
2022/07/20 05:08:55;;;;;;;26.75;18.00;;;;;;;24.72;50.68;99552.44;5027100;28;20049;-65
2022/07/20 05:11:22;;;;;;;25.30;19.38;;;;;;;24.71;50.50;99559.69;5026753;28;20049;-65
2022/07/20 05:13:48;;;;;;;26.83;18.13;;;;;;;24.66;50.76;99556.66;5026945;28;20060;-65
2022/07/20 05:16:15;;;;;;;30.65;20.27;;;;;;;24.63;50.65;99565.94;5026204;28;20060;-65
2022/07/20 05:18:42;;;;;;;27.63;19.90;;;;;;;24.59;50.94;99556.53;5026744;28;20049;-65
2022/07/20 05:21:10;;;;;;;24.80;19.15;;;;;;;24.60;51.38;99554.66;5027393;28;20046;-65
2022/07/20 05:23:36;;;;;;;27.25;19.38;;;;;;;24.62;51.08;99558.03;5019273;28;20052;-65
2022/07/20 05:26:04;;;;;;;26.75;18.70;;;;;;;24.61;51.37;99554.50;5006192;28;20050;-65
2022/07/20 05:28:31;;;;;;;27.83;19.88;;;;;;;24.65;51.42;99563.06;5006924;28;20045;-65
2022/07/20 05:30:58;;;;;;;21.10;18.35;;;;;;;24.61;51.22;99567.97;5006798;28;20046;-65
2022/07/20 05:33:24;;;;;;;29.05;19.10;;;;;;;24.66;51.45;99562.03;5017223;28;20501;-65
2022/07/20 05:35:51;;;;;;;29.38;19.80;;;;;;;24.64;51.29;99573.00;5025572;28;20049;-65
2022/07/20 05:38:19;;;;;;;28.67;17.98;;;;;;;24.64;51.59;99581.09;5026349;28;20055;-67
2022/07/20 05:40:46;;;;;;;24.17;18.95;;;;;;;24.61;51.91;99592.25;5026258;28;20049;-66
2022/07/20 05:43:13;;;;;;;32.72;20.67;;;;;;;24.55;52.06;99611.78;5026492;28;20053;-65
2022/07/20 05:45:40;;;;;;;30.20;20.48;;;;;;;24.45;52.17;99602.16;5026040;28;20137;-65
2022/07/20 05:48:10;;;;;;;30.27;18.77;;;;;;;24.44;52.15;99606.72;5026290;28;20045;-66
2022/07/20 05:50:37;;;;;;;25.45;19.52;;;;;;;24.41;52.35;99612.41;5026418;28;20045;-65
2022/07/20 05:53:04;;;;;;;32.03;21.15;;;;;;;24.42;52.62;99600.66;5026338;28;20053;-65
2022/07/20 05:55:32;;;;;;;25.88;18.10;;;;;;;24.42;52.09;99609.56;5025302;28;20140;-65
2022/07/20 05:57:58;;;;;;;27.40;19.70;;;;;;;24.40;52.83;99616.97;5017222;28;20054;-65
2022/07/20 06:00:25;;;;;;;24.65;19.13;;;;;;;24.38;52.55;99619.00;5005956;28;20058;-64
2022/07/20 06:02:51;;;;;;;33.22;20.25;;;;;;;24.32;52.94;99626.94;5022815;28;20049;-65
2022/07/20 06:05:18;;;;;;;27.85;18.83;;;;;;;24.35;52.81;99631.97;5025303;28;20053;-65
2022/07/20 06:07:45;;;;;;;26.40;20.10;;;;;;;24.37;52.64;99644.25;5026588;28;20068;-64
2022/07/20 06:10:11;;;;;;;23.58;18.02;;;;;;;24.36;52.67;99647.13;5026320;28;20107;-65
2022/07/20 06:12:39;;;;;;;25.42;20.33;;;;;;;24.42;52.47;99659.94;5025357;28;20060;-65
2022/07/20 06:15:07;;;;;;;29.63;21.58;;;;;;;24.42;52.77;99665.31;5024862;28;20136;-65
2022/07/20 06:17:34;;;;;;;24.83;21.02;;;;;;;24.38;52.90;99663.97;5025025;28;20045;-65
2022/07/20 06:20:07;;;;;;;36.55;21.55;;;;;;;24.46;52.54;99666.69;5025089;28;20651;-65
2022/07/20 06:22:34;;;;;;;26.05;19.95;;;;;;;24.51;52.48;99672.41;5025306;28;20142;-64
2022/07/20 06:25:01;;;;;;;30.73;19.88;;;;;;;24.57;51.44;99684.38;5005263;28;20048;-65
2022/07/20 06:27:28;;;;;;;26.08;18.48;;;;;;;24.63;51.90;99683.69;5005808;28;20053;-65
2022/07/20 06:29:56;;;;;;;27.02;18.05;;;;;;;24.61;51.50;99693.81;5006134;28;20045;-65
2022/07/20 06:32:22;;;;;;;26.92;18.40;;;;;;;24.48;51.71;99694.31;5006230;28;20509;-65
2022/07/20 06:34:49;;;;;;;24.17;18.13;;;;;;;24.50;51.63;99702.25;5005057;28;20046;-65
2022/07/20 06:37:15;;;;;;;32.45;20.38;;;;;;;24.51;51.79;99707.44;5005466;28;20474;-65
2022/07/20 06:39:42;;;;;;;26.05;19.95;;;;;;;24.56;52.30;99709.66;5006038;28;20532;-65
2022/07/20 06:42:09;;;;;;;27.25;17.75;;;;;;;24.64;51.86;99710.50;5005607;28;20188;-65
2022/07/20 06:44:35;;;;;;;33.80;19.58;;;;;;;24.73;51.86;99726.66;5004704;28;20052;-65
2022/07/20 06:47:03;;;;;;;27.95;17.63;;;;;;;24.80;51.42;99725.81;5005378;28;20847;-65
2022/07/20 06:49:30;;;;;;;26.75;18.40;;;;;;;24.88;51.44;99734.94;5004900;28;20057;-66
2022/07/20 06:51:57;;;;;;;21.05;17.65;;;;;;;24.93;51.33;99763.06;5021489;28;20052;-65
2022/07/20 06:54:23;;;;;;;23.15;19.85;;;;;;;24.94;51.11;99769.31;5024408;28;20057;-65
2022/07/20 06:56:50;;;;;;;24.00;18.35;;;;;;;24.88;51.11;99778.91;5025004;28;20049;-65
2022/07/20 06:59:17;;;;;;;28.90;18.45;;;;;;;24.84;51.47;99774.88;5024555;28;20049;-65
2022/07/20 07:01:43;;;;;;;23.90;18.85;;;;;;;24.86;51.17;99778.25;5024830;28;20041;-65
2022/07/20 07:04:11;;;;;;;31.02;17.65;;;;;;;24.91;51.14;99786.69;5024422;28;20061;-65
2022/07/20 07:06:38;;;;;;;22.10;16.80;;;;;;;24.88;50.89;99778.06;5024769;28;20045;-65
2022/07/20 07:09:05;;;;;;;23.50;18.92;;;;;;;24.80;50.89;99784.31;5024378;28;20057;-65
2022/07/20 07:11:32;;;;;;;23.00;17.05;;;;;;;24.83;51.12;99778.56;5024132;28;20088;-65
2022/07/20 07:13:58;;;;;;;23.85;15.52;;;;;;;24.98;50.91;99767.97;5023850;28;20041;-66
2022/07/20 07:16:26;;;;;;;20.50;15.80;;;;;;;25.21;50.28;99778.94;5024102;28;20145;-64
2022/07/20 07:18:52;;;;;;;19.00;15.07;;;;;;;25.37;49.23;99760.00;5024516;28;20046;-64
2022/07/20 07:21:20;;;;;;;19.73;15.68;;;;;;;25.52;48.85;99778.22;5024432;28;20058;-64
2022/07/20 07:23:49;;;;;;;24.80;15.10;;;;;;;25.57;47.62;99781.22;5014584;28;20046;-63
2022/07/20 07:26:16;;;;;;;26.25;16.15;;;;;;;25.60;47.42;99780.91;5003723;28;20053;-65
2022/07/20 07:28:43;;;;;;;32.17;16.10;;;;;;;25.65;47.38;99781.22;5009246;28;20050;-64
2022/07/20 07:31:10;;;;;;;17.92;14.13;;;;;;;25.71;47.77;99778.66;5027004;28;20521;-64
2022/07/20 07:33:37;;;;;;;23.23;13.50;;;;;;;25.84;47.29;99778.13;5024363;28;20077;-64
2022/07/20 07:36:04;;;;;;;18.02;13.35;;;;;;;25.95;46.84;99795.84;5023485;28;20055;-64
2022/07/20 07:38:33;;;;;;;18.70;13.98;;;;;;;26.09;46.31;99805.09;5024306;28;20046;-64
2022/07/20 07:40:59;;;;;;;19.45;13.85;;;;;;;26.15;46.48;99796.25;5024201;28;20056;-64
2022/07/20 07:43:26;;;;;;;23.63;13.77;;;;;;;26.35;46.31;99800.19;5024204;28;20068;-64
2022/07/20 07:45:52;;;;;;;16.27;13.00;;;;;;;26.55;45.48;99806.03;5023169;28;20056;-64
2022/07/20 07:48:19;;;;;;;22.83;13.38;;;;;;;26.63;45.31;99824.09;5023793;28;20071;-64
2022/07/20 07:50:46;;;;;;;20.13;13.32;;;;;;;26.63;45.16;99824.09;5023656;28;20501;-64
2022/07/20 07:53:12;;;;;;;17.35;13.20;;;;;;;26.67;45.02;99819.16;5024625;28;20052;-64
2022/07/20 07:55:42;;;;;;;16.27;11.63;;;;;;;26.74;45.35;99803.88;5020438;28;20060;-63
2022/07/20 07:58:11;;;;;;;18.52;11.52;;;;;;;26.71;44.82;99805.09;5013744;28;20509;-65
2022/07/20 08:00:39;;;;;;;19.83;11.55;;;;;;;26.55;44.61;99802.47;5004358;28;20049;-65
2022/07/20 08:03:06;;;;;;;17.95;11.80;;;;;;;26.48;44.74;99799.66;5004641;28;20068;-63
2022/07/20 08:05:33;;;;;;;16.17;11.10;;;;;;;26.47;44.80;99810.63;5022957;28;20065;-64
2022/07/20 08:08:06;;;;;;;17.33;12.65;;;;;;;26.38;45.37;99860.34;5023637;28;20048;-64
2022/07/20 08:10:33;;;;;;;15.77;11.02;;;;;;;26.24;45.53;99886.25;5024015;28;20046;-64
2022/07/20 08:13:01;;;;;;;20.70;10.57;;;;;;;26.10;45.88;99879.72;5024128;28;20045;-65
2022/07/20 08:15:28;;;;;;;14.98;10.98;;;;;;;26.09;45.49;99878.88;5022855;28;20057;-65
2022/07/20 08:17:54;;;;;;;19.15;12.93;;;;;;;25.96;45.95;99894.75;5023731;28;20061;-64
2022/07/20 08:20:23;;;;;;;19.20;12.63;;;;;;;25.77;46.35;99900.50;5024082;28;20046;-66
2022/07/20 08:22:50;;;;;;;13.60;11.10;;;;;;;25.68;46.82;99897.00;5023413;28;20048;-64
2022/07/20 08:25:16;;;;;;;19.80;11.75;;;;;;;25.56;47.13;99874.06;5027794;28;20394;-65
2022/07/20 08:27:43;;;;;;;18.77;11.82;;;;;;;25.54;47.48;99830.19;5028350;28;20056;-65
2022/07/20 08:30:12;;;;;;;17.83;11.43;;;;;;;25.54;47.55;99755.44;5028270;28;20050;-64
2022/07/20 08:32:39;;;;;;;26.00;12.70;;;;;;;25.47;48.76;99705.84;5028079;28;20056;-64
2022/07/20 08:35:06;;;;;;;27.73;13.75;;;;;;;24.97;50.76;99628.72;5026571;28;20060;-64
2022/07/20 08:37:33;;;;;;;26.35;14.23;;;;;;;24.19;54.19;99539.38;5027334;28;20055;-65
2022/07/20 08:39:59;;;;;;;18.50;11.15;;;;;;;24.05;55.35;99596.59;5027295;28;20060;-65
2022/07/20 08:42:26;;;;;;;23.45;13.23;;;;;;;23.97;55.92;99744.69;5027389;28;20412;-64
2022/07/20 08:44:53;;;;;;;22.15;13.63;;;;;;;23.93;56.24;99794.50;5026597;28;20056;-64
2022/07/20 08:47:25;;;;;;;16.75;12.13;;;;;;;23.97;56.71;99793.16;5027205;28;20045;-64
2022/07/20 08:49:52;;;;;;;21.77;12.18;;;;;;;24.02;56.92;99812.38;5027540;28;20053;-64
2022/07/20 08:52:19;;;;;;;19.02;12.70;;;;;;;24.06;56.21;99804.81;5028038;28;20053;-64
2022/07/20 08:54:47;;;;;;;17.23;12.27;;;;;;;24.15;56.52;99785.84;5028483;28;20049;-65
2022/07/20 08:57:15;;;;;;;14.98;11.60;;;;;;;24.26;56.70;99821.56;5028018;28;20061;-63
2022/07/20 08:59:42;;;;;;;17.38;11.60;;;;;;;24.31;54.86;99816.53;5026869;28;20496;-64
2022/07/20 09:02:10;;;;;;;17.08;10.70;;;;;;;24.49;55.62;99798.44;5026950;28;20053;-63
2022/07/20 09:04:50;;;;;;;14.55;10.25;;;;;;;24.66;54.22;99798.44;5027176;28;20057;-63
2022/07/20 09:07:17;;;;;;;18.52;12.55;;;;;;;24.94;55.13;99804.38;5027771;28;20048;-63
2022/07/20 09:09:43;;;;;;;23.30;12.63;;;;;;;25.18;52.78;99815.22;5030537;28;20060;-65
2022/07/20 09:12:10;;;;;;;16.92;12.57;;;;;;;25.57;52.45;99810.94;5030003;28;20045;-63
2022/07/20 09:14:40;;;;;;;23.80;12.65;;;;;;;25.89;49.75;99808.19;5033075;28;20049;-63
2022/07/20 09:17:18;;;;;;;20.02;12.80;;;;;;;26.48;48.15;99804.19;5030604;28;20053;-63
2022/07/20 09:19:58;;;;;;;17.02;12.48;;;;;;;26.98;47.00;99817.25;5030748;28;20485;-64
2022/07/20 09:22:33;;;;;;;19.55;11.95;;;;;;;27.11;45.98;99837.44;5029184;28;20060;-65
2022/07/20 09:25:08;;;;;;;21.55;11.18;;;;;;;27.45;45.51;99839.72;5026128;28;20681;-65
2022/07/20 09:27:35;;;;;;;19.38;11.38;;;;;;;28.18;42.84;99834.53;5026636;28;20049;-64
2022/07/20 09:30:06;;;;;;;17.50;11.75;;;;;;;28.37;42.23;99830.38;5017207;28;20056;-65
2022/07/20 09:32:48;;;;;;;17.98;12.73;;;;;;;29.06;40.87;99833.50;5026135;28;20055;-65
2022/07/20 09:35:16;;;;;;;16.27;11.02;;;;;;;29.80;39.01;99853.94;5025126;28;20730;-64
2022/07/20 09:37:43;;;;;;;16.85;11.35;;;;;;;30.52;38.19;99858.13;5026557;28;20056;-65
2022/07/20 09:40:10;;;;;;;19.70;11.90;;;;;;;30.50;37.33;99865.66;5026165;28;20050;-63
2022/07/20 09:42:38;;;;;;;14.73;10.95;;;;;;;30.74;36.76;99866.13;5026209;28;20531;-65
2022/07/20 09:45:22;;;;;;;18.80;10.05;;;;;;;31.25;36.07;99862.91;5025240;28;20056;-65
2022/07/20 09:48:03;;;;;;;16.80;10.40;;;;;;;30.38;36.94;99868.13;5025715;28;20053;-65
2022/07/20 09:50:32;;;;;;;17.88;10.13;;;;;;;29.78;38.25;99882.38;5025711;28;20042;-65
2022/07/20 09:52:59;;;;;;;15.95;10.88;;;;;;;29.54;38.74;99887.19;5025882;28;20489;-65
2022/07/20 09:55:26;;;;;;;17.33;12.18;;;;;;;29.27;39.34;99889.66;5025329;28;20045;-65
2022/07/20 09:57:54;;;;;;;14.77;10.57;;;;;;;29.72;38.48;99881.28;5025506;28;20049;-65
2022/07/20 10:00:22;;;;;;;16.80;10.88;;;;;;;30.40;37.19;99884.25;5026010;28;20045;-65
2022/07/20 10:02:50;;;;;;;14.27;9.52;;;;;;;31.11;35.88;99872.13;5025881;28;20425;-65
2022/07/20 10:05:19;;;;;;;21.60;11.77;;;;;;;31.67;34.64;99872.56;5025474;28;20533;-65
2022/07/20 10:07:47;;;;;;;11.45;9.30;;;;;;;31.28;35.01;99859.75;5025923;28;20049;-65
2022/07/20 10:10:15;;;;;;;20.60;10.95;;;;;;;30.22;37.12;99852.09;5025697;28;20045;-65
2022/07/20 10:12:41;;;;;;;17.35;10.40;;;;;;;30.07;37.49;99854.13;5025575;28;20498;-65
2022/07/20 10:15:13;;;;;;;13.68;9.57;;;;;;;30.95;35.50;99851.56;5024932;28;20076;-66
2022/07/20 10:17:42;;;;;;;14.90;10.10;;;;;;;30.94;35.62;99849.88;5024968;28;20850;-65
2022/07/20 10:20:29;;;;;;;12.93;10.27;;;;;;;31.78;34.41;99843.84;5025604;28;20071;-66
2022/07/20 10:23:26;;;;;;;15.40;10.90;;;;;;;32.03;33.90;99851.38;5025154;28;20780;-66
2022/07/20 10:25:53;;;;;;;13.98;10.52;;;;;;;32.65;32.86;99851.78;5024442;28;20488;-65
2022/07/20 10:28:34;;;;;;;13.70;9.50;;;;;;;32.84;32.00;99847.28;5025358;28;20056;-64
2022/07/20 10:31:04;;;;;;;17.73;10.75;;;;;;;32.13;33.63;99853.66;5025114;28;20045;-64
2022/07/20 10:33:32;;;;;;;15.25;10.27;;;;;;;32.26;33.73;99850.88;5024823;28;20512;-65
2022/07/20 10:38:55;;;;;;;10.55;8.48;;;;;;;33.02;32.39;99849.25;5025080;28;20056;-65
2022/07/20 10:41:36;;;;;;;13.05;10.18;;;;;;;33.25;31.44;99845.94;5025101;28;20056;-65
2022/07/20 10:44:28;;;;;;;13.77;9.98;;;;;;;33.63;30.94;99855.97;5023947;28;20057;-65
2022/07/20 10:46:55;;;;;;;16.45;9.75;;;;;;;33.54;31.88;99850.72;5023482;28;20061;-65
2022/07/20 10:50:02;;;;;;;19.98;11.63;;;;;;;33.39;31.49;99822.06;5024242;28;20044;-65
2022/07/20 10:52:32;;;;;;;13.55;9.57;;;;;;;32.73;32.34;99835.13;5024677;28;20150;-65
2022/07/20 10:55:00;;;;;;;14.85;9.27;;;;;;;32.60;32.92;99843.41;5024116;28;20057;-65
2022/07/20 10:57:27;;;;;;;14.93;9.65;;;;;;;32.42;33.56;99838.66;5024441;28;20363;-65
2022/07/20 11:00:17;;;;;;;13.50;9.60;;;;;;;32.44;33.69;99829.19;5024605;28;20513;-65
2022/07/20 11:02:44;;;;;;;12.77;9.43;;;;;;;32.14;33.79;99822.59;5009169;28;20057;-65
2022/07/20 11:05:21;;;;;;;14.98;10.27;;;;;;;31.35;35.35;99825.19;5023856;28;20060;-65
2022/07/20 11:07:47;;;;;;;14.35;9.80;;;;;;;30.81;36.46;99820.72;5024380;28;20119;-65
2022/07/20 11:10:24;;;;;;;11.57;9.13;;;;;;;30.62;36.54;99813.34;5024349;28;20053;-65
2022/07/20 11:12:56;;;;;;;13.60;8.55;;;;;;;30.56;36.66;99821.28;5024525;28;20055;-66
2022/07/20 11:15:23;;;;;;;14.13;9.10;;;;;;;30.45;36.93;99819.19;5024110;28;20045;-65
2022/07/20 11:17:49;;;;;;;14.45;9.90;;;;;;;30.64;36.61;99820.25;5024429;28;20060;-65
2022/07/20 11:20:17;;;;;;;14.65;9.50;;;;;;;30.58;36.69;99818.38;5024329;28;20412;-64
2022/07/20 11:22:45;;;;;;;11.63;10.15;;;;;;;30.44;36.91;99812.03;5024230;28;20060;-64
2022/07/20 11:25:12;;;;;;;15.18;9.63;;;;;;;30.24;37.60;99811.13;5024057;28;20049;-64
2022/07/20 11:27:40;;;;;;;10.45;8.27;;;;;;;30.18;38.15;99805.44;5024079;28;20137;-64
2022/07/20 11:30:08;;;;;;;11.88;9.63;;;;;;;30.14;38.14;99812.31;5023997;28;20359;-66
2022/07/20 11:32:35;;;;;;;14.57;9.70;;;;;;;30.30;38.04;99807.59;5024133;28;20505;-65